Time;durP1;ratioP1;P1;durP2;ratioP2;P2;SDS_P1;SDS_P2;PMS_P1;PMS_P2;Temp;Humidity;BMP_temperature;BMP_pressure;BME280_temperature;BME280_humidity;BME280_pressure;Samples;Min_cycle;Max_cycle;Signal;HPM_P1;HPM_P2
2022/09/26 00:00:05;;;;;;;3.23;2.23;;;10.50;99.90;;;;;;4996324;28;20244;-73
2022/09/26 00:02:31;;;;;;;6.23;3.10;;;10.60;99.90;;;;;;4996307;28;20427;-73
2022/09/26 00:04:56;;;;;;;2.70;1.90;;;10.70;99.90;;;;;;4995610;28;20908;-74
2022/09/26 00:07:22;;;;;;;6.83;2.10;;;10.70;99.90;;;;;;4994726;28;20200;-73
2022/09/26 00:09:47;;;;;;;2.60;1.87;;;10.70;99.90;;;;;;4996166;28;20173;-73
2022/09/26 00:12:13;;;;;;;5.10;2.20;;;10.70;99.90;;;;;;4995869;28;20208;-71
2022/09/26 00:14:39;;;;;;;1.87;1.67;;;10.70;99.90;;;;;;4995676;28;20207;-74
2022/09/26 00:17:04;;;;;;;3.80;2.10;;;10.70;99.90;;;;;;4995763;28;20193;-73
2022/09/26 00:19:29;;;;;;;2.83;2.40;;;10.70;99.90;;;;;;4994781;28;20165;-74
2022/09/26 00:21:55;;;;;;;8.10;2.20;;;10.80;99.90;;;;;;4995722;28;20231;-73
2022/09/26 00:24:21;;;;;;;2.33;1.77;;;10.80;99.90;;;;;;4995478;28;20169;-73
2022/09/26 00:26:46;;;;;;;3.23;2.50;;;10.70;99.90;;;;;;4994253;28;20192;-73
2022/09/26 00:29:12;;;;;;;2.80;1.80;;;10.70;99.90;;;;;;4995880;28;20533;-72
2022/09/26 00:31:43;;;;;;;3.70;2.50;;;10.80;99.90;;;;;;4995621;28;20560;-74
2022/09/26 00:34:11;;;;;;;4.10;2.23;;;10.80;99.90;;;;;;4995750;28;20436;-74
2022/09/26 00:36:37;;;;;;;3.43;1.93;;;10.80;99.90;;;;;;4995550;28;20839;-74
2022/09/26 00:39:03;;;;;;;2.60;2.40;;;10.80;99.90;;;;;;4995740;28;20400;-73
2022/09/26 00:41:28;;;;;;;4.53;2.67;;;10.80;99.90;;;;;;4995593;28;20188;-73
2022/09/26 00:43:56;;;;;;;3.33;2.10;;;10.80;99.90;;;;;;4995417;28;20175;-73
2022/09/26 00:46:41;;;;;;;3.20;2.23;;;10.90;99.90;;;;;;4995135;28;20193;-73
2022/09/26 00:49:24;;;;;;;8.00;2.90;;;10.90;99.90;;;;;;4995318;28;20414;-71
2022/09/26 00:52:00;;;;;;;4.77;2.37;;;10.90;99.90;;;;;;4994683;28;20404;-72
2022/09/26 00:54:28;;;;;;;4.03;2.50;;;10.90;99.90;;;;;;4995105;28;20388;-72
2022/09/26 00:56:58;;;;;;;5.53;3.27;;;10.90;99.90;;;;;;4994959;28;20480;-72
2022/09/26 00:59:28;;;;;;;2.83;1.90;;;10.90;99.90;;;;;;4995341;28;20377;-72
2022/09/26 01:01:57;;;;;;;3.30;2.20;;;11.00;99.90;;;;;;4995040;28;20401;-71
2022/09/26 01:04:24;;;;;;;2.50;2.30;;;10.90;99.90;;;;;;4994885;28;20404;-73
2022/09/26 01:06:50;;;;;;;4.00;3.03;;;11.00;99.90;;;;;;4994908;28;20551;-73
2022/09/26 01:09:17;;;;;;;3.23;2.93;;;11.00;99.90;;;;;;4995011;28;20914;-73
2022/09/26 01:11:43;;;;;;;3.90;2.80;;;11.00;99.90;;;;;;4994805;28;20428;-72
2022/09/26 01:14:11;;;;;;;2.20;1.93;;;11.10;99.90;;;;;;4994752;28;20405;-73
2022/09/26 01:16:38;;;;;;;4.37;2.30;;;11.10;99.90;;;;;;4994432;28;20483;-73
2022/09/26 01:19:12;;;;;;;2.70;2.30;;;11.10;99.90;;;;;;4994806;28;20419;-73
2022/09/26 01:22:05;;;;;;;2.43;2.23;;;11.00;99.90;;;;;;4994853;28;20416;-73
2022/09/26 01:24:45;;;;;;;3.90;2.20;;;11.10;99.90;;;;;;4994599;28;20408;-73
2022/09/26 01:27:49;;;;;;;3.90;2.57;;;11.10;99.90;;;;;;4994482;28;20420;-73
2022/09/26 01:30:25;;;;;;;3.60;2.87;;;11.10;99.90;;;;;;4959646;28;20420;-73
2022/09/26 01:32:59;;;;;;;2.47;1.83;;;11.20;99.90;;;;;;4993492;28;20455;-73
2022/09/26 01:35:46;;;;;;;3.37;2.77;;;11.20;99.90;;;;;;4994264;28;20438;-73
2022/09/26 01:38:31;;;;;;;9.80;2.57;;;11.20;99.90;;;;;;4994242;28;20403;-73
2022/09/26 01:41:16;;;;;;;3.23;2.93;;;11.20;99.90;;;;;;4994454;28;20894;-72
2022/09/26 01:43:54;;;;;;;6.07;2.47;;;11.20;99.90;;;;;;4994484;28;20446;-72
2022/09/26 01:46:31;;;;;;;8.00;3.00;;;11.20;99.90;;;;;;4994365;28;20431;-73
2022/09/26 01:49:13;;;;;;;6.53;3.10;;;11.20;99.90;;;;;;4993066;28;20754;-73
2022/09/26 01:51:49;;;;;;;3.47;2.80;;;11.20;99.90;;;;;;4994303;28;20420;-73
2022/09/26 01:54:20;;;;;;;5.70;3.23;;;11.30;99.90;;;;;;4993777;28;20443;-73
2022/09/26 01:56:49;;;;;;;4.97;3.00;;;11.30;99.90;;;;;;4994102;28;20423;-73
2022/09/26 01:59:25;;;;;;;5.40;2.70;;;11.30;99.90;;;;;;4993873;28;20499;-73
2022/09/26 02:01:54;;;;;;;2.70;2.50;;;11.30;99.90;;;;;;4993015;28;20435;-74
2022/09/26 02:04:25;;;;;;;5.37;3.70;;;11.20;99.90;;;;;;4993648;28;20396;-74
2022/09/26 02:07:10;;;;;;;4.03;3.03;;;11.20;99.90;;;;;;4993988;28;20479;-74
2022/09/26 02:09:44;;;;;;;6.43;3.13;;;11.20;99.90;;;;;;4993974;28;20404;-73
2022/09/26 02:12:18;;;;;;;4.33;3.80;;;11.20;99.90;;;;;;4993845;28;20461;-74
2022/09/26 02:14:46;;;;;;;4.03;2.70;;;11.20;99.90;;;;;;4993656;28;20936;-72
2022/09/26 02:17:16;;;;;;;7.77;3.63;;;11.20;99.90;;;;;;4992609;28;20995;-73
2022/09/26 02:19:48;;;;;;;4.50;3.20;;;11.20;99.90;;;;;;4992501;28;20427;-74
2022/09/26 02:22:14;;;;;;;7.83;4.90;;;11.20;99.90;;;;;;4993759;28;20475;-72
2022/09/26 02:24:39;;;;;;;3.37;3.07;;;11.20;99.90;;;;;;4993398;28;20448;-72
2022/09/26 02:27:05;;;;;;;4.90;3.43;;;11.20;99.90;;;;;;4992017;28;20432;-72
2022/09/26 02:29:32;;;;;;;3.23;2.87;;;11.20;99.90;;;;;;4993238;28;20172;-71
2022/09/26 02:32:04;;;;;;;4.00;3.20;;;11.10;99.90;;;;;;4993528;28;20693;-71
2022/09/26 02:34:30;;;;;;;3.43;3.03;;;11.10;99.90;;;;;;4991975;28;20419;-72
2022/09/26 02:36:57;;;;;;;4.20;3.53;;;11.00;99.90;;;;;;4993706;28;20905;-72
2022/09/26 02:39:23;;;;;;;4.67;3.20;;;11.00;99.90;;;;;;4992127;28;20173;-72
2022/09/26 02:42:01;;;;;;;4.97;3.07;;;11.10;99.90;;;;;;4993344;28;20890;-72
2022/09/26 02:44:50;;;;;;;5.37;3.60;;;11.00;99.90;;;;;;4992877;28;20458;-72
2022/09/26 02:47:48;;;;;;;5.20;3.20;;;11.00;99.90;;;;;;4992937;28;20449;-72
2022/09/26 02:50:45;;;;;;;4.60;3.30;;;11.00;99.90;;;;;;4985394;28;20467;-72
2022/09/26 02:53:39;;;;;;;4.30;3.57;;;11.00;99.90;;;;;;4983852;28;20492;-72
2022/09/26 02:56:24;;;;;;;3.63;2.70;;;10.90;99.90;;;;;;4992538;28;20421;-72
2022/09/26 02:59:12;;;;;;;3.53;3.23;;;10.90;99.90;;;;;;4992959;28;20404;-71
2022/09/26 03:01:41;;;;;;;6.87;3.50;;;10.80;99.90;;;;;;4992835;28;20749;-71
2022/09/26 03:04:22;;;;;;;3.97;2.90;;;10.70;99.90;;;;;;4991739;28;20423;-72
2022/09/26 03:06:52;;;;;;;3.80;3.40;;;10.70;99.90;;;;;;4991578;28;20493;-72
2022/09/26 03:09:21;;;;;;;3.67;2.93;;;10.70;99.90;;;;;;4991758;28;20502;-72
2022/09/26 03:11:48;;;;;;;3.80;3.10;;;10.70;99.90;;;;;;4992795;28;20756;-71
2022/09/26 03:14:15;;;;;;;6.07;3.47;;;10.70;99.90;;;;;;4992521;28;20920;-71
2022/09/26 03:16:43;;;;;;;2.63;2.10;;;10.70;99.90;;;;;;4992268;28;20975;-72
2022/09/26 03:19:17;;;;;;;8.30;3.00;;;10.80;99.90;;;;;;4992695;28;20415;-72
2022/09/26 03:21:44;;;;;;;4.30;3.90;;;10.80;99.90;;;;;;4992787;28;20459;-72
2022/09/26 03:24:10;;;;;;;4.43;3.27;;;10.80;99.90;;;;;;4992530;28;20411;-71
2022/09/26 03:26:36;;;;;;;5.53;4.20;;;10.80;99.90;;;;;;4992403;28;20435;-72
2022/09/26 03:29:02;;;;;;;6.60;3.60;;;10.80;99.90;;;;;;4992981;28;20438;-72
2022/09/26 03:31:27;;;;;;;7.07;3.60;;;10.80;99.90;;;;;;4992908;28;20161;-72
2022/09/26 03:33:53;;;;;;;5.30;3.70;;;10.80;99.90;;;;;;4992775;28;20978;-71
2022/09/26 03:36:21;;;;;;;4.00;3.47;;;10.80;99.90;;;;;;4991211;28;20283;-71
2022/09/26 03:38:47;;;;;;;5.53;4.23;;;10.80;99.90;;;;;;4992441;28;20564;-71
2022/09/26 03:41:13;;;;;;;5.57;3.80;;;10.80;99.90;;;;;;4991303;28;20527;-73
2022/09/26 03:43:42;;;;;;;7.23;4.80;;;10.80;99.90;;;;;;4992797;28;20176;-72
2022/09/26 03:46:10;;;;;;;7.17;3.77;;;10.80;99.90;;;;;;4992394;28;20192;-72
2022/09/26 03:48:37;;;;;;;4.70;3.80;;;10.80;99.90;;;;;;4991255;28;20420;-72
2022/09/26 03:51:05;;;;;;;9.37;4.80;;;10.80;99.90;;;;;;4992278;28;20443;-72
2022/09/26 03:53:32;;;;;;;7.00;4.57;;;10.80;99.90;;;;;;4992160;28;20976;-72
2022/09/26 03:56:06;;;;;;;5.03;4.00;;;10.80;99.90;;;;;;4992479;28;20431;-72
2022/09/26 03:58:32;;;;;;;6.80;4.40;;;10.80;99.90;;;;;;4992706;28;20400;-72
2022/09/26 04:01:03;;;;;;;6.40;5.10;;;10.80;99.90;;;;;;4992576;28;20415;-72
2022/09/26 04:03:31;;;;;;;6.10;4.60;;;10.70;99.90;;;;;;4992716;28;20440;-72
2022/09/26 04:05:57;;;;;;;5.43;4.90;;;10.70;99.90;;;;;;4992382;28;20428;-72
2022/09/26 04:08:22;;;;;;;7.37;5.00;;;10.70;99.90;;;;;;4992814;28;20454;-72
2022/09/26 04:10:48;;;;;;;8.33;4.20;;;10.70;99.90;;;;;;4992498;28;20176;-73
2022/09/26 04:13:13;;;;;;;6.97;5.30;;;10.60;99.90;;;;;;4992552;28;20601;-73
2022/09/26 04:15:39;;;;;;;8.93;6.40;;;10.50;99.90;;;;;;4992186;28;20340;-72
2022/09/26 04:18:04;;;;;;;15.53;7.60;;;10.60;99.90;;;;;;4992493;28;20165;-72
2022/09/26 04:20:30;;;;;;;8.77;4.60;;;10.50;99.90;;;;;;4992337;28;20574;-72
2022/09/26 04:22:56;;;;;;;6.80;5.83;;;10.50;99.90;;;;;;4992461;28;20169;-72
2022/09/26 04:25:21;;;;;;;7.53;5.30;;;10.50;99.90;;;;;;4992007;28;20192;-72
2022/09/26 04:27:47;;;;;;;5.80;4.53;;;10.50;99.90;;;;;;4993286;28;20171;-72
2022/09/26 04:30:12;;;;;;;8.43;5.97;;;10.50;99.90;;;;;;4995760;28;20176;-72
2022/09/26 04:32:38;;;;;;;9.90;5.90;;;10.50;99.90;;;;;;4995516;28;20192;-72
2022/09/26 04:35:04;;;;;;;9.33;4.80;;;10.50;99.90;;;;;;4995202;28;20169;-73
2022/09/26 04:37:30;;;;;;;9.17;4.87;;;10.50;99.90;;;;;;4995551;28;20172;-72
2022/09/26 04:39:56;;;;;;;9.50;5.20;;;10.50;99.90;;;;;;4995719;28;20412;-72
2022/09/26 04:42:23;;;;;;;6.33;5.50;;;10.50;99.90;;;;;;4994376;28;20642;-72
2022/09/26 04:44:49;;;;;;;8.83;5.27;;;10.50;99.90;;;;;;4995274;28;20165;-72
2022/09/26 04:47:15;;;;;;;8.80;4.77;;;10.50;99.90;;;;;;4995447;28;20435;-72
2022/09/26 04:49:41;;;;;;;6.50;4.67;;;10.50;99.90;;;;;;4995256;28;20179;-72
2022/09/26 04:52:07;;;;;;;9.90;4.70;;;10.50;99.90;;;;;;4994420;28;20455;-72
2022/09/26 04:54:36;;;;;;;9.27;4.80;;;10.50;99.90;;;;;;4994878;28;20426;-72
2022/09/26 04:57:03;;;;;;;6.43;4.50;;;10.50;99.90;;;;;;4995488;28;20315;-72
2022/09/26 04:59:28;;;;;;;15.70;5.07;;;10.40;99.90;;;;;;4995274;28;20822;-73
2022/09/26 05:01:54;;;;;;;11.20;5.63;;;10.40;99.90;;;;;;4993994;28;20486;-72
2022/09/26 05:04:21;;;;;;;7.63;4.50;;;10.40;99.90;;;;;;4993658;28;20268;-72
2022/09/26 05:06:46;;;;;;;7.77;4.30;;;10.50;99.90;;;;;;4993711;28;20622;-76
2022/09/26 05:09:12;;;;;;;7.00;3.60;;;10.50;99.90;;;;;;4995156;28;20494;-72
2022/09/26 05:11:37;;;;;;;12.13;4.67;;;10.50;99.90;;;;;;4995268;28;20175;-72
2022/09/26 05:14:03;;;;;;;6.97;3.70;;;10.60;99.90;;;;;;4993855;28;20296;-73
2022/09/26 05:16:29;;;;;;;6.43;4.00;;;10.60;99.90;;;;;;4994721;28;20188;-73
2022/09/26 05:18:55;;;;;;;7.47;4.13;;;10.60;99.90;;;;;;4995218;28;20403;-72
2022/09/26 05:21:20;;;;;;;6.30;3.90;;;10.60;99.90;;;;;;4994009;28;20531;-72
2022/09/26 05:26:47;;;;;;;8.00;3.87;;;10.60;99.90;;;;;;4992236;28;20200;-72
2022/09/26 05:29:14;;;;;;;4.57;3.53;;;10.60;99.90;;;;;;4994404;28;20408;-73
2022/09/26 05:31:40;;;;;;;3.80;3.07;;;10.60;99.90;;;;;;4994323;28;20487;-73
2022/09/26 05:34:11;;;;;;;6.80;3.43;;;10.60;99.90;;;;;;4994344;28;20547;-73
2022/09/26 05:36:38;;;;;;;7.57;4.60;;;10.70;99.90;;;;;;4994578;28;20685;-73
2022/09/26 05:40:55;;;;;;;5.63;3.47;;;10.70;99.90;;;;;;4993772;28;20405;-73
2022/09/26 05:41:52;;;;;;;3.67;2.87;;;10.70;99.90;;;;;;4994057;28;20448;-72
2022/09/26 05:44:18;;;;;;;4.83;3.37;;;10.70;99.90;;;;;;4994409;28;20447;-72
2022/09/26 05:46:44;;;;;;;5.63;3.33;;;10.80;99.90;;;;;;4994225;28;20429;-72
2022/09/26 05:49:10;;;;;;;4.90;3.23;;;10.80;99.90;;;;;;4994292;28;20411;-72
2022/09/26 05:51:37;;;;;;;7.80;4.27;;;10.80;99.90;;;;;;4994394;28;20196;-72
2022/09/26 05:54:03;;;;;;;6.37;4.07;;;10.90;99.90;;;;;;4993938;28;21005;-72
2022/09/26 05:56:28;;;;;;;6.50;3.50;;;10.90;99.90;;;;;;4992073;28;20574;-72
2022/09/26 05:58:54;;;;;;;5.80;4.07;;;10.90;99.90;;;;;;4993938;28;20177;-73
2022/09/26 06:01:19;;;;;;;5.40;4.30;;;10.90;99.90;;;;;;4993787;28;20200;-73
2022/09/26 06:03:45;;;;;;;4.60;3.50;;;10.90;99.90;;;;;;4993977;28;20700;-71
2022/09/26 06:06:14;;;;;;;5.10;3.30;;;10.90;99.90;;;;;;4993406;28;20184;-71
2022/09/26 06:08:40;;;;;;;3.50;3.10;;;11.10;99.90;;;;;;4993485;28;20435;-72
2022/09/26 06:11:09;;;;;;;8.90;3.63;;;11.20;99.90;;;;;;4993727;28;20408;-72
2022/09/26 06:13:35;;;;;;;4.10;3.20;;;11.20;99.90;;;;;;4993573;28;20821;-72
2022/09/26 06:16:06;;;;;;;5.63;2.83;;;11.30;99.90;;;;;;4993237;28;20416;-72
2022/09/26 06:18:33;;;;;;;4.23;2.73;;;11.40;99.90;;;;;;4993521;28;20770;-73
2022/09/26 06:21:02;;;;;;;3.57;2.40;;;11.50;99.90;;;;;;4993479;28;20419;-72
2022/09/26 06:23:29;;;;;;;3.60;2.90;;;11.60;99.90;;;;;;4992017;28;20408;-72
2022/09/26 06:25:55;;;;;;;2.53;2.10;;;11.80;99.90;;;;;;4991801;28;20455;-72
2022/09/26 06:28:20;;;;;;;2.57;1.90;;;11.90;99.90;;;;;;4993133;28;20412;-73
2022/09/26 06:30:46;;;;;;;13.63;2.40;;;12.10;99.90;;;;;;4993320;28;20173;-73
2022/09/26 06:33:11;;;;;;;8.07;2.63;;;12.20;99.90;;;;;;4993059;28;20678;-72
2022/09/26 06:35:37;;;;;;;7.10;2.73;;;12.30;99.90;;;;;;4993109;28;20239;-72
2022/09/26 06:38:04;;;;;;;2.60;2.03;;;12.40;99.90;;;;;;4993075;28;20221;-72
2022/09/26 06:40:32;;;;;;;2.87;2.10;;;12.50;99.90;;;;;;4993051;28;20169;-72
2022/09/26 06:42:58;;;;;;;4.10;1.93;;;12.60;99.90;;;;;;4992912;28;20495;-72
2022/09/26 06:45:25;;;;;;;5.20;1.90;;;12.60;99.90;;;;;;4992645;28;20923;-72
2022/09/26 06:47:51;;;;;;;2.97;1.97;;;12.70;99.90;;;;;;4993078;28;20412;-72
2022/09/26 06:50:16;;;;;;;3.10;1.73;;;12.80;99.90;;;;;;4992151;28;20487;-72
2022/09/26 06:52:42;;;;;;;2.03;1.23;;;12.90;99.90;;;;;;4992877;28;20287;-72
2022/09/26 06:55:09;;;;;;;3.87;1.90;;;12.90;99.90;;;;;;4991269;28;20196;-72
2022/09/26 06:57:42;;;;;;;2.80;1.63;;;12.80;99.90;;;;;;4991562;28;20425;-72
2022/09/26 07:00:10;;;;;;;2.13;1.70;;;12.90;99.90;;;;;;4992434;28;20435;-72
2022/09/26 07:02:36;;;;;;;3.93;1.87;;;12.90;99.90;;;;;;4992883;28;20419;-72
2022/09/26 07:05:04;;;;;;;1.80;1.40;;;12.80;99.90;;;;;;4991304;28;20415;-72
2022/09/26 07:07:31;;;;;;;2.77;1.60;;;12.90;99.90;;;;;;4991518;28;20272;-72
2022/09/26 07:09:56;;;;;;;11.33;2.40;;;12.90;99.90;;;;;;4992867;28;20416;-72
2022/09/26 07:12:23;;;;;;;5.70;2.20;;;12.90;99.90;;;;;;4992700;28;20980;-72
2022/09/26 07:14:50;;;;;;;2.50;1.93;;;12.80;99.90;;;;;;4992542;28;20538;-72
2022/09/26 07:17:16;;;;;;;2.73;1.57;;;12.80;99.90;;;;;;4992720;28;20432;-72
2022/09/26 07:19:42;;;;;;;5.00;2.20;;;12.90;99.90;;;;;;4991392;28;20415;-73
2022/09/26 07:22:08;;;;;;;2.27;1.40;;;12.90;99.90;;;;;;4992671;28;20793;-73
2022/09/26 07:24:34;;;;;;;2.27;2.07;;;12.90;99.90;;;;;;4992355;28;20195;-73
2022/09/26 07:27:00;;;;;;;3.60;2.03;;;12.90;99.90;;;;;;4992654;28;20189;-73
2022/09/26 07:29:26;;;;;;;5.90;1.90;;;12.80;99.90;;;;;;4991473;28;20537;-72
2022/09/26 07:31:52;;;;;;;3.10;1.97;;;12.90;99.90;;;;;;4992568;28;20420;-73
2022/09/26 07:34:17;;;;;;;4.30;2.10;;;12.80;99.90;;;;;;4991163;28;20256;-73
2022/09/26 07:36:43;;;;;;;2.17;1.70;;;12.90;99.90;;;;;;4991087;28;20216;-73
2022/09/26 07:39:08;;;;;;;2.90;1.93;;;12.80;99.90;;;;;;4992461;28;20176;-73
2022/09/26 07:41:33;;;;;;;2.47;2.10;;;12.80;99.90;;;;;;4992905;28;20169;-73
2022/09/26 07:43:59;;;;;;;3.30;1.67;;;12.80;99.90;;;;;;4992839;28;20169;-73
2022/09/26 07:51:55;;;;;;;3.00;1.90;;;12.90;99.90;;;;;;4992322;28;21080;-74
2022/09/26 07:54:21;;;;;;;2.90;2.10;;;12.90;99.90;;;;;;4990744;28;20415;-73
2022/09/26 07:56:47;;;;;;;3.63;1.83;;;12.90;99.90;;;;;;4991007;28;20805;-74
2022/09/26 07:59:13;;;;;;;2.00;1.30;;;13.00;99.90;;;;;;4990677;28;20416;-74
2022/09/26 08:01:39;;;;;;;2.40;1.50;;;13.00;99.90;;;;;;4993144;28;20212;-74
2022/09/26 08:04:05;;;;;;;3.03;1.20;;;13.00;99.90;;;;;;4996431;28;20197;-73
2022/09/26 08:06:33;;;;;;;3.40;1.30;;;13.10;99.90;;;;;;4995789;28;20566;-74
2022/09/26 08:08:59;;;;;;;1.40;1.00;;;13.10;99.90;;;;;;4996846;28;20399;-74
2022/09/26 08:11:26;;;;;;;1.57;1.47;;;13.00;99.90;;;;;;4996878;28;20408;-73
2022/09/26 08:13:52;;;;;;;2.70;1.50;;;13.00;99.90;;;;;;4996501;28;20458;-73
2022/09/26 08:16:19;;;;;;;2.10;1.03;;;12.90;99.90;;;;;;4996068;28;20924;-73
2022/09/26 08:18:45;;;;;;;6.30;1.47;;;12.90;99.90;;;;;;4996000;28;20439;-73
2022/09/26 08:21:11;;;;;;;4.03;1.53;;;12.90;99.90;;;;;;4995766;28;20797;-72
2022/09/26 08:23:37;;;;;;;1.47;1.10;;;12.80;99.90;;;;;;4995649;28;20411;-73
2022/09/26 08:26:06;;;;;;;3.90;1.47;;;12.80;99.90;;;;;;4995217;28;20196;-73
2022/09/26 08:28:35;;;;;;;7.17;1.30;;;12.80;99.90;;;;;;4995626;28;20176;-72
2022/09/26 08:31:03;;;;;;;6.73;1.60;;;12.90;99.90;;;;;;4995667;28;20781;-74
2022/09/26 08:33:33;;;;;;;2.57;1.23;;;13.00;99.90;;;;;;4994658;28;20460;-73
2022/09/26 08:36:02;;;;;;;3.33;1.27;;;13.10;99.90;;;;;;4994068;28;20444;-74
2022/09/26 08:38:29;;;;;;;3.67;1.27;;;13.20;99.90;;;;;;4994737;28;20425;-73
2022/09/26 08:41:15;;;;;;;1.40;1.20;;;13.20;99.90;;;;;;4994632;28;20408;-74
2022/09/26 08:44:00;;;;;;;1.20;1.00;;;13.20;99.90;;;;;;4995822;28;20404;-73
2022/09/26 08:46:55;;;;;;;3.63;1.13;;;13.20;99.90;;;;;;4993831;28;20444;-74
2022/09/26 08:49:41;;;;;;;1.37;1.20;;;13.10;99.90;;;;;;4995018;28;20479;-73
2022/09/26 08:52:25;;;;;;;2.23;1.10;;;13.00;99.90;;;;;;4995107;28;20422;-73
2022/09/26 08:54:53;;;;;;;2.97;1.10;;;13.00;99.90;;;;;;4994827;28;20408;-73
2022/09/26 08:57:41;;;;;;;2.43;1.50;;;12.90;99.90;;;;;;4994998;28;20420;-73
2022/09/26 09:00:23;;;;;;;2.13;1.20;;;12.90;99.90;;;;;;4995178;28;20408;-73
2022/09/26 09:02:54;;;;;;;1.87;1.23;;;12.80;99.90;;;;;;4994489;28;20418;-74
2022/09/26 09:05:27;;;;;;;2.80;1.07;;;12.70;99.90;;;;;;4994993;28;20404;-73
2022/09/26 09:07:55;;;;;;;4.80;1.50;;;12.70;99.90;;;;;;4994105;28;20412;-73
2022/09/26 09:10:37;;;;;;;2.73;1.17;;;12.60;99.90;;;;;;4995358;28;20491;-74
2022/09/26 09:13:28;;;;;;;7.07;1.83;;;12.60;99.90;;;;;;4994500;28;20447;-74
2022/09/26 09:16:10;;;;;;;1.50;1.10;;;12.70;99.90;;;;;;4994886;28;20530;-73
2022/09/26 09:18:46;;;;;;;4.13;0.93;;;12.80;99.90;;;;;;4993851;28;20412;-74
2022/09/26 09:21:44;;;;;;;5.73;1.10;;;12.80;99.90;;;;;;4994888;28;20491;-73
2022/09/26 09:24:33;;;;;;;2.40;1.57;;;12.90;99.90;;;;;;4994392;28;20972;-72
2022/09/26 09:27:26;;;;;;;2.63;1.70;;;13.10;99.90;;;;;;4993962;28;20470;-73
2022/09/26 09:30:07;;;;;;;2.80;1.27;;;13.10;99.90;;;;;;4994185;28;20521;-73
2022/09/26 09:32:47;;;;;;;1.20;0.90;;;13.20;99.90;;;;;;4994756;28;20857;-72
2022/09/26 09:35:15;;;;;;;2.03;1.20;;;13.20;99.90;;;;;;4993961;28;20412;-73
2022/09/26 09:37:48;;;;;;;2.90;1.30;;;13.30;99.90;;;;;;4994141;28;20431;-72
2022/09/26 09:40:27;;;;;;;3.57;1.10;;;13.20;99.90;;;;;;4994197;28;20395;-72
2022/09/26 09:43:03;;;;;;;3.10;1.60;;;13.00;99.90;;;;;;4993912;28;20396;-73
2022/09/26 09:45:36;;;;;;;1.67;1.17;;;13.00;99.90;;;;;;4993748;28;20450;-72
2022/09/26 09:48:03;;;;;;;2.63;1.00;;;12.90;99.90;;;;;;4993811;28;20836;-72
2022/09/26 09:50:42;;;;;;;3.77;1.83;;;12.80;99.90;;;;;;4994007;28;20424;-73
2022/09/26 09:53:21;;;;;;;4.90;1.93;;;12.70;99.90;;;;;;4993979;28;20953;-72
2022/09/26 09:56:19;;;;;;;2.00;1.30;;;12.70;99.90;;;;;;4992097;28;20436;-72
2022/09/26 09:59:29;;;;;;;3.30;1.40;;;12.80;99.90;;;;;;4993684;28;20499;-73
2022/09/26 10:02:38;;;;;;;2.03;1.40;;;12.90;99.90;;;;;;4981501;28;20416;-73
2022/09/26 10:05:16;;;;;;;1.60;1.10;;;12.90;99.90;;;;;;4985675;28;20447;-73
2022/09/26 10:07:43;;;;;;;6.17;1.60;;;13.00;99.90;;;;;;4993442;28;20403;-74
2022/09/26 10:10:19;;;;;;;2.13;1.50;;;13.00;99.90;;;;;;4993432;28;20412;-73
2022/09/26 10:12:48;;;;;;;1.47;1.37;;;12.80;99.90;;;;;;4993319;28;20451;-72
2022/09/26 10:15:19;;;;;;;3.33;1.00;;;12.60;99.90;;;;;;4993095;28;20483;-73
2022/09/26 10:18:04;;;;;;;2.00;1.53;;;12.40;99.90;;;;;;4993356;28;20809;-72
2022/09/26 10:20:52;;;;;;;1.67;1.20;;;12.40;99.90;;;;;;4992103;28;20403;-72
2022/09/26 10:23:31;;;;;;;2.90;1.30;;;12.30;99.90;;;;;;4993524;28;20404;-72
2022/09/26 10:26:03;;;;;;;2.03;1.40;;;12.30;99.90;;;;;;4992905;28;20424;-73
2022/09/26 10:28:36;;;;;;;1.93;1.30;;;12.30;99.90;;;;;;4993339;28;20427;-72
2022/09/26 10:31:07;;;;;;;2.80;1.30;;;12.40;99.90;;;;;;4993198;28;20404;-72
2022/09/26 10:33:34;;;;;;;1.67;1.30;;;12.40;99.90;;;;;;4991640;28;20546;-73
2022/09/26 10:36:10;;;;;;;1.67;1.57;;;12.50;99.90;;;;;;4991749;28;20490;-72
2022/09/26 10:41:43;;;;;;;3.57;1.47;;;12.70;99.90;;;;;;4993001;28;20443;-73
2022/09/26 10:44:24;;;;;;;1.93;1.60;;;12.80;99.90;;;;;;4992932;28;20409;-72
2022/09/26 10:46:51;;;;;;;2.90;1.00;;;12.90;99.90;;;;;;4992697;28;20427;-72
2022/09/26 10:49:22;;;;;;;1.73;1.30;;;13.10;99.90;;;;;;4992798;28;20407;-72
2022/09/26 10:51:56;;;;;;;6.40;1.37;;;13.20;99.90;;;;;;4992821;28;20418;-73
2022/09/26 10:54:25;;;;;;;1.80;1.20;;;13.40;99.90;;;;;;4992597;28;20420;-72
2022/09/26 10:56:58;;;;;;;5.27;1.30;;;13.50;99.90;;;;;;4992778;28;20447;-72
2022/09/26 10:59:29;;;;;;;2.87;1.43;;;13.60;99.90;;;;;;4992852;28;20396;-74
2022/09/26 11:01:57;;;;;;;2.27;1.20;;;13.70;99.90;;;;;;4992777;28;20427;-73
2022/09/26 11:07:24;;;;;;;1.60;1.10;;;13.80;99.90;;;;;;4993119;28;20435;-73
2022/09/26 11:09:51;;;;;;;1.40;1.10;;;13.90;99.90;;;;;;4992923;28;20408;-72
2022/09/26 11:12:28;;;;;;;1.30;1.10;;;14.10;99.90;;;;;;4992801;28;20447;-73
2022/09/26 11:14:59;;;;;;;1.30;1.00;;;14.10;99.90;;;;;;4992751;28;20424;-72
2022/09/26 11:17:50;;;;;;;1.43;1.10;;;14.20;99.90;;;;;;4993100;28;20424;-72
2022/09/26 11:20:39;;;;;;;1.40;1.10;;;14.20;99.90;;;;;;4993607;28;20420;-75
2022/09/26 11:23:26;;;;;;;1.37;0.90;;;14.30;99.90;;;;;;4992848;28;20495;-73
2022/09/26 11:26:15;;;;;;;2.63;0.97;;;14.40;99.90;;;;;;4992639;28;20807;-72
2022/09/26 11:28:48;;;;;;;1.57;1.47;;;14.70;99.90;;;;;;4993525;28;20419;-73
2022/09/26 11:31:23;;;;;;;6.03;1.30;;;15.00;99.90;;;;;;4993559;28;20412;-73
2022/09/26 11:33:49;;;;;;;1.60;0.90;;;15.30;99.90;;;;;;4992586;28;20447;-73
2022/09/26 11:36:59;;;;;;;1.53;0.93;;;15.40;99.90;;;;;;4992979;28;20970;-74
2022/09/26 11:39:42;;;;;;;2.07;1.10;;;15.60;99.90;;;;;;4997457;28;20169;-72
2022/09/26 11:42:29;;;;;;;1.97;1.47;;;15.60;99.90;;;;;;4996700;28;20400;-73
2022/09/26 11:44:57;;;;;;;1.30;1.10;;;15.40;99.90;;;;;;4996262;28;20819;-73
2022/09/26 11:48:11;;;;;;;12.53;1.47;;;15.40;99.90;;;;;;4996456;28;20427;-73
2022/09/26 11:50:57;;;;;;;1.50;0.90;;;15.30;99.90;;;;;;4996403;28;20919;-73
2022/09/26 11:53:53;;;;;;;1.50;0.97;;;15.30;99.90;;;;;;4996398;28;20471;-72
2022/09/26 11:56:41;;;;;;;1.83;1.40;;;15.20;99.90;;;;;;4994920;28;20531;-74
2022/09/26 11:59:39;;;;;;;1.40;0.90;;;15.00;99.90;;;;;;4996532;28;20440;-72
2022/09/26 12:02:19;;;;;;;2.00;1.13;;;14.80;99.90;;;;;;4994946;28;20416;-73
2022/09/26 12:05:32;;;;;;;1.23;1.00;;;14.70;99.90;;;;;;4996169;28;21098;-73
2022/09/26 12:08:10;;;;;;;1.20;0.90;;;14.60;99.90;;;;;;4995894;28;20885;-73
2022/09/26 12:10:41;;;;;;;1.77;1.30;;;14.40;99.90;;;;;;4994510;28;20414;-73
2022/09/26 12:13:28;;;;;;;1.87;1.07;;;14.40;99.90;;;;;;4995523;28;20505;-73
2022/09/26 12:16:01;;;;;;;2.07;1.10;;;14.50;99.90;;;;;;4995122;28;20419;-73
2022/09/26 12:18:31;;;;;;;3.20;1.00;;;14.40;99.90;;;;;;4994351;28;20412;-72
2022/09/26 12:21:30;;;;;;;2.20;0.90;;;14.50;99.90;;;;;;4995159;28;20462;-72
2022/09/26 12:24:05;;;;;;;1.17;1.00;;;14.40;99.90;;;;;;4995556;28;20937;-73
2022/09/26 12:26:52;;;;;;;1.83;0.80;;;14.40;99.90;;;;;;4994986;28;20430;-73
2022/09/26 12:29:57;;;;;;;3.27;1.43;;;14.40;99.90;;;;;;4994103;28;20925;-74
2022/09/26 12:32:46;;;;;;;3.30;1.00;;;14.30;99.90;;;;;;4993684;28;20462;-72
2022/09/26 12:35:20;;;;;;;2.33;1.50;;;14.30;99.90;;;;;;4994835;28;20466;-73
2022/09/26 12:38:07;;;;;;;2.57;1.03;;;14.40;99.90;;;;;;4995555;28;20413;-71
2022/09/26 12:40:55;;;;;;;1.20;0.83;;;14.40;99.90;;;;;;4995747;28;20412;-72
2022/09/26 12:43:45;;;;;;;1.37;0.97;;;14.40;99.90;;;;;;4995965;28;20927;-73
2022/09/26 12:46:23;;;;;;;2.37;1.00;;;14.40;99.90;;;;;;4996035;28;21005;-73
2022/09/26 12:48:57;;;;;;;1.10;0.80;;;14.30;99.90;;;;;;4992673;28;20831;-73
2022/09/26 12:51:41;;;;;;;2.20;1.40;;;14.00;99.90;;;;;;4994805;28;20423;-74
2022/09/26 12:54:37;;;;;;;3.13;1.30;;;13.70;99.90;;;;;;4994752;28;20460;-74
2022/09/26 12:57:26;;;;;;;2.17;1.50;;;13.30;99.90;;;;;;4992044;28;20977;-73
2022/09/26 13:00:17;;;;;;;1.50;1.27;;;13.00;99.90;;;;;;4994811;28;20400;-73
2022/09/26 13:03:04;;;;;;;5.37;1.97;;;12.80;99.90;;;;;;4994964;28;20405;-72
2022/09/26 13:05:55;;;;;;;2.07;1.37;;;12.60;99.90;;;;;;4994445;28;20419;-71
2022/09/26 13:08:43;;;;;;;1.57;1.00;;;12.50;99.90;;;;;;4993676;28;20902;-73
2022/09/26 13:11:20;;;;;;;1.97;1.53;;;12.50;99.90;;;;;;4994628;28;20782;-72
2022/09/26 13:14:11;;;;;;;3.03;1.10;;;12.60;99.90;;;;;;4994460;28;20455;-72
2022/09/26 13:17:12;;;;;;;5.47;3.20;;;12.70;99.90;;;;;;4994388;28;20424;-73
2022/09/26 13:19:50;;;;;;;1.47;1.17;;;12.90;99.90;;;;;;4995165;28;20410;-74
2022/09/26 13:22:31;;;;;;;1.63;1.43;;;13.10;99.90;;;;;;4995880;28;20399;-74
2022/09/26 13:25:18;;;;;;;2.57;1.97;;;13.20;99.90;;;;;;4994320;28;20405;-74
2022/09/26 13:28:15;;;;;;;1.70;1.53;;;13.40;99.90;;;;;;4994214;28;20757;-73
2022/09/26 13:30:46;;;;;;;4.40;1.90;;;13.40;99.90;;;;;;4994498;28;20762;-74